sensor_id;sensor_type;location;lat;lon;timestamp;P1;durP1;ratioP1;P2;durP2;ratioP2
577;SDS011;275;48.492;9.214;2023-04-25T00:00:55;6.25;;;4.18;;
577;SDS011;275;48.492;9.214;2023-04-25T00:03:22;5.40;;;4.20;;
577;SDS011;275;48.492;9.214;2023-04-25T00:05:50;6.72;;;4.75;;
577;SDS011;275;48.492;9.214;2023-04-25T00:08:17;5.43;;;4.88;;
577;SDS011;275;48.492;9.214;2023-04-25T00:10:45;8.02;;;4.53;;
577;SDS011;275;48.492;9.214;2023-04-25T00:13:13;7.20;;;4.93;;
577;SDS011;275;48.492;9.214;2023-04-25T00:15:42;6.95;;;4.30;;
577;SDS011;275;48.492;9.214;2023-04-25T00:18:11;5.68;;;4.47;;
577;SDS011;275;48.492;9.214;2023-04-25T00:20:38;8.32;;;4.35;;
577;SDS011;275;48.492;9.214;2023-04-25T00:23:05;5.43;;;4.45;;
577;SDS011;275;48.492;9.214;2023-04-25T00:25:32;5.78;;;4.00;;
577;SDS011;275;48.492;9.214;2023-04-25T00:28:00;5.32;;;3.67;;
577;SDS011;275;48.492;9.214;2023-04-25T00:30:27;7.35;;;4.45;;
577;SDS011;275;48.492;9.214;2023-04-25T00:32:54;7.13;;;4.97;;
577;SDS011;275;48.492;9.214;2023-04-25T00:35:21;7.03;;;5.53;;
577;SDS011;275;48.492;9.214;2023-04-25T00:37:48;8.60;;;5.30;;
577;SDS011;275;48.492;9.214;2023-04-25T00:40:14;7.13;;;5.10;;
577;SDS011;275;48.492;9.214;2023-04-25T00:42:41;6.28;;;4.70;;
577;SDS011;275;48.492;9.214;2023-04-25T00:45:10;9.10;;;5.50;;
577;SDS011;275;48.492;9.214;2023-04-25T00:47:40;5.25;;;4.75;;
577;SDS011;275;48.492;9.214;2023-04-25T00:50:08;4.95;;;4.30;;
577;SDS011;275;48.492;9.214;2023-04-25T00:52:35;6.63;;;5.75;;
577;SDS011;275;48.492;9.214;2023-04-25T00:55:04;7.78;;;5.57;;
577;SDS011;275;48.492;9.214;2023-04-25T00:57:31;9.82;;;5.18;;
577;SDS011;275;48.492;9.214;2023-04-25T00:59:58;7.78;;;5.00;;
577;SDS011;275;48.492;9.214;2023-04-25T01:02:26;6.05;;;4.80;;
577;SDS011;275;48.492;9.214;2023-04-25T01:04:54;6.15;;;3.90;;
577;SDS011;275;48.492;9.214;2023-04-25T01:07:21;5.70;;;4.65;;
577;SDS011;275;48.492;9.214;2023-04-25T01:09:48;7.47;;;4.45;;
577;SDS011;275;48.492;9.214;2023-04-25T01:12:17;4.35;;;3.95;;
577;SDS011;275;48.492;9.214;2023-04-25T01:14:44;5.10;;;4.15;;
577;SDS011;275;48.492;9.214;2023-04-25T01:17:11;5.03;;;4.53;;
577;SDS011;275;48.492;9.214;2023-04-25T01:19:41;5.07;;;3.90;;
577;SDS011;275;48.492;9.214;2023-04-25T01:22:09;6.10;;;4.20;;
577;SDS011;275;48.492;9.214;2023-04-25T01:24:37;7.30;;;4.85;;
577;SDS011;275;48.492;9.214;2023-04-25T01:27:04;7.05;;;5.05;;
577;SDS011;275;48.492;9.214;2023-04-25T01:29:31;4.68;;;4.15;;
577;SDS011;275;48.492;9.214;2023-04-25T01:31:59;5.85;;;4.25;;
577;SDS011;275;48.492;9.214;2023-04-25T01:34:26;6.13;;;4.80;;
577;SDS011;275;48.492;9.214;2023-04-25T01:36:53;5.38;;;4.45;;
577;SDS011;275;48.492;9.214;2023-04-25T01:39:21;4.45;;;3.55;;
577;SDS011;275;48.492;9.214;2023-04-25T01:41:48;7.85;;;4.50;;
577;SDS011;275;48.492;9.214;2023-04-25T01:44:15;5.07;;;4.40;;
577;SDS011;275;48.492;9.214;2023-04-25T01:46:42;6.07;;;4.20;;
577;SDS011;275;48.492;9.214;2023-04-25T01:49:09;6.10;;;4.22;;
577;SDS011;275;48.492;9.214;2023-04-25T01:51:36;6.30;;;4.63;;
577;SDS011;275;48.492;9.214;2023-04-25T01:54:03;5.80;;;4.25;;
577;SDS011;275;48.492;9.214;2023-04-25T01:56:31;6.43;;;4.65;;
577;SDS011;275;48.492;9.214;2023-04-25T01:58:59;6.50;;;4.15;;
577;SDS011;275;48.492;9.214;2023-04-25T02:01:26;4.40;;;3.80;;
577;SDS011;275;48.492;9.214;2023-04-25T02:03:53;6.35;;;4.10;;
577;SDS011;275;48.492;9.214;2023-04-25T02:06:19;7.20;;;4.15;;
577;SDS011;275;48.492;9.214;2023-04-25T02:08:46;5.35;;;3.83;;
577;SDS011;275;48.492;9.214;2023-04-25T02:11:13;5.88;;;4.53;;
577;SDS011;275;48.492;9.214;2023-04-25T02:13:41;8.18;;;3.90;;
577;SDS011;275;48.492;9.214;2023-04-25T02:16:08;4.95;;;3.90;;
577;SDS011;275;48.492;9.214;2023-04-25T02:18:35;6.15;;;4.55;;
577;SDS011;275;48.492;9.214;2023-04-25T02:21:04;8.95;;;3.95;;
577;SDS011;275;48.492;9.214;2023-04-25T02:23:31;5.22;;;3.67;;
577;SDS011;275;48.492;9.214;2023-04-25T02:25:58;7.15;;;4.43;;
577;SDS011;275;48.492;9.214;2023-04-25T02:28:24;4.07;;;3.65;;
577;SDS011;275;48.492;9.214;2023-04-25T02:30:53;5.85;;;3.85;;
577;SDS011;275;48.492;9.214;2023-04-25T02:33:19;6.10;;;3.80;;
577;SDS011;275;48.492;9.214;2023-04-25T02:35:47;4.45;;;3.42;;
577;SDS011;275;48.492;9.214;2023-04-25T02:38:13;4.63;;;3.55;;
577;SDS011;275;48.492;9.214;2023-04-25T02:40:40;4.80;;;3.60;;
577;SDS011;275;48.492;9.214;2023-04-25T02:43:07;6.10;;;3.90;;
577;SDS011;275;48.492;9.214;2023-04-25T02:45:34;6.65;;;4.32;;
577;SDS011;275;48.492;9.214;2023-04-25T02:48:03;5.78;;;3.72;;
577;SDS011;275;48.492;9.214;2023-04-25T02:50:30;4.65;;;3.55;;
577;SDS011;275;48.492;9.214;2023-04-25T02:52:57;4.60;;;3.75;;
577;SDS011;275;48.492;9.214;2023-04-25T02:55:23;5.25;;;4.50;;
577;SDS011;275;48.492;9.214;2023-04-25T02:57:51;6.57;;;3.40;;
577;SDS011;275;48.492;9.214;2023-04-25T03:00:20;4.90;;;3.88;;
577;SDS011;275;48.492;9.214;2023-04-25T03:02:47;5.90;;;3.95;;
577;SDS011;275;48.492;9.214;2023-04-25T03:05:15;4.97;;;4.22;;
577;SDS011;275;48.492;9.214;2023-04-25T03:07:42;6.25;;;3.80;;
577;SDS011;275;48.492;9.214;2023-04-25T03:10:10;5.97;;;3.45;;
577;SDS011;275;48.492;9.214;2023-04-25T03:12:37;6.70;;;4.35;;
577;SDS011;275;48.492;9.214;2023-04-25T03:15:05;5.13;;;4.10;;
577;SDS011;275;48.492;9.214;2023-04-25T03:17:32;5.88;;;4.28;;
577;SDS011;275;48.492;9.214;2023-04-25T03:19:59;4.55;;;3.63;;
577;SDS011;275;48.492;9.214;2023-04-25T03:22:28;7.32;;;4.18;;
577;SDS011;275;48.492;9.214;2023-04-25T03:24:54;5.53;;;3.80;;
577;SDS011;275;48.492;9.214;2023-04-25T03:27:21;6.25;;;4.05;;
577;SDS011;275;48.492;9.214;2023-04-25T03:29:48;5.78;;;4.28;;
577;SDS011;275;48.492;9.214;2023-04-25T03:32:15;4.50;;;3.70;;
577;SDS011;275;48.492;9.214;2023-04-25T03:34:42;5.47;;;3.70;;
577;SDS011;275;48.492;9.214;2023-04-25T03:37:09;5.55;;;4.15;;
577;SDS011;275;48.492;9.214;2023-04-25T03:39:37;7.18;;;4.03;;
577;SDS011;275;48.492;9.214;2023-04-25T03:42:04;6.03;;;3.30;;
577;SDS011;275;48.492;9.214;2023-04-25T03:44:30;5.07;;;3.92;;
577;SDS011;275;48.492;9.214;2023-04-25T03:46:57;7.03;;;3.70;;
577;SDS011;275;48.492;9.214;2023-04-25T03:49:24;5.70;;;3.60;;
577;SDS011;275;48.492;9.214;2023-04-25T03:51:51;5.00;;;3.10;;
577;SDS011;275;48.492;9.214;2023-04-25T03:54:18;5.28;;;3.50;;
577;SDS011;275;48.492;9.214;2023-04-25T03:56:46;6.57;;;3.53;;
577;SDS011;275;48.492;9.214;2023-04-25T03:59:13;5.40;;;3.92;;
577;SDS011;275;48.492;9.214;2023-04-25T04:01:40;6.80;;;3.38;;
577;SDS011;275;48.492;9.214;2023-04-25T04:04:07;7.10;;;4.15;;
577;SDS011;275;48.492;9.214;2023-04-25T04:06:34;5.55;;;3.50;;
577;SDS011;275;48.492;9.214;2023-04-25T04:09:01;6.03;;;3.85;;
577;SDS011;275;48.492;9.214;2023-04-25T04:11:28;4.53;;;3.70;;
577;SDS011;275;48.492;9.214;2023-04-25T04:13:57;4.10;;;2.88;;
577;SDS011;275;48.492;9.214;2023-04-25T04:16:25;6.35;;;3.80;;
577;SDS011;275;48.492;9.214;2023-04-25T04:18:51;4.78;;;3.38;;
577;SDS011;275;48.492;9.214;2023-04-25T04:21:18;4.47;;;3.42;;
577;SDS011;275;48.492;9.214;2023-04-25T04:23:45;4.85;;;3.30;;
577;SDS011;275;48.492;9.214;2023-04-25T04:26:13;4.72;;;3.85;;
577;SDS011;275;48.492;9.214;2023-04-25T04:28:41;4.40;;;4.00;;
577;SDS011;275;48.492;9.214;2023-04-25T04:31:10;4.57;;;3.78;;
577;SDS011;275;48.492;9.214;2023-04-25T04:33:37;5.65;;;4.30;;
577;SDS011;275;48.492;9.214;2023-04-25T04:36:05;6.78;;;4.25;;
577;SDS011;275;48.492;9.214;2023-04-25T04:38:32;5.88;;;4.07;;
577;SDS011;275;48.492;9.214;2023-04-25T04:40:59;5.38;;;3.70;;
577;SDS011;275;48.492;9.214;2023-04-25T04:43:27;5.45;;;3.92;;
577;SDS011;275;48.492;9.214;2023-04-25T04:45:54;6.68;;;4.05;;
577;SDS011;275;48.492;9.214;2023-04-25T04:48:23;4.80;;;3.83;;
577;SDS011;275;48.492;9.214;2023-04-25T04:50:50;5.00;;;3.72;;
577;SDS011;275;48.492;9.214;2023-04-25T04:53:17;6.30;;;3.72;;
577;SDS011;275;48.492;9.214;2023-04-25T04:55:44;7.20;;;3.83;;
577;SDS011;275;48.492;9.214;2023-04-25T04:58:11;6.32;;;3.70;;
577;SDS011;275;48.492;9.214;2023-04-25T05:00:38;5.40;;;4.22;;
577;SDS011;275;48.492;9.214;2023-04-25T05:03:05;8.95;;;4.32;;
577;SDS011;275;48.492;9.214;2023-04-25T05:05:33;6.22;;;3.72;;
577;SDS011;275;48.492;9.214;2023-04-25T05:08:00;5.07;;;3.53;;
577;SDS011;275;48.492;9.214;2023-04-25T05:10:27;5.90;;;4.05;;
577;SDS011;275;48.492;9.214;2023-04-25T05:12:53;6.10;;;3.83;;
577;SDS011;275;48.492;9.214;2023-04-25T05:15:20;5.22;;;3.88;;
577;SDS011;275;48.492;9.214;2023-04-25T05:17:47;5.30;;;3.28;;
577;SDS011;275;48.492;9.214;2023-04-25T05:20:14;4.90;;;3.80;;
577;SDS011;275;48.492;9.214;2023-04-25T05:22:42;5.60;;;4.60;;
577;SDS011;275;48.492;9.214;2023-04-25T05:25:09;7.97;;;4.25;;
577;SDS011;275;48.492;9.214;2023-04-25T05:27:36;5.95;;;3.88;;
577;SDS011;275;48.492;9.214;2023-04-25T05:30:03;6.93;;;4.30;;
577;SDS011;275;48.492;9.214;2023-04-25T05:32:31;4.32;;;3.63;;
577;SDS011;275;48.492;9.214;2023-04-25T05:34:57;6.53;;;4.70;;
577;SDS011;275;48.492;9.214;2023-04-25T05:37:24;6.60;;;4.05;;
577;SDS011;275;48.492;9.214;2023-04-25T05:39:52;6.97;;;4.22;;
577;SDS011;275;48.492;9.214;2023-04-25T05:42:19;6.40;;;4.25;;
577;SDS011;275;48.492;9.214;2023-04-25T05:44:46;7.70;;;4.07;;
577;SDS011;275;48.492;9.214;2023-04-25T05:47:13;6.15;;;4.10;;
577;SDS011;275;48.492;9.214;2023-04-25T05:49:40;6.15;;;4.10;;
577;SDS011;275;48.492;9.214;2023-04-25T05:52:07;4.70;;;3.53;;
577;SDS011;275;48.492;9.214;2023-04-25T05:54:33;5.25;;;3.50;;
577;SDS011;275;48.492;9.214;2023-04-25T05:57:01;3.78;;;3.20;;
577;SDS011;275;48.492;9.214;2023-04-25T05:59:28;4.80;;;3.67;;
577;SDS011;275;48.492;9.214;2023-04-25T06:01:55;4.47;;;4.07;;
577;SDS011;275;48.492;9.214;2023-04-25T06:04:22;6.75;;;3.70;;
577;SDS011;275;48.492;9.214;2023-04-25T06:06:49;9.05;;;4.22;;
577;SDS011;275;48.492;9.214;2023-04-25T06:09:16;13.27;;;4.50;;
577;SDS011;275;48.492;9.214;2023-04-25T06:11:42;7.00;;;3.45;;
577;SDS011;275;48.492;9.214;2023-04-25T06:14:11;5.20;;;3.55;;
577;SDS011;275;48.492;9.214;2023-04-25T06:16:37;6.55;;;3.85;;
577;SDS011;275;48.492;9.214;2023-04-25T06:19:04;6.25;;;4.72;;
577;SDS011;275;48.492;9.214;2023-04-25T06:21:31;4.70;;;3.45;;
577;SDS011;275;48.492;9.214;2023-04-25T06:23:58;5.57;;;3.97;;
577;SDS011;275;48.492;9.214;2023-04-25T06:26:25;5.00;;;3.60;;
577;SDS011;275;48.492;9.214;2023-04-25T06:28:51;6.05;;;3.78;;
577;SDS011;275;48.492;9.214;2023-04-25T06:31:19;7.25;;;3.78;;
577;SDS011;275;48.492;9.214;2023-04-25T06:33:46;5.13;;;3.80;;
577;SDS011;275;48.492;9.214;2023-04-25T06:36:14;6.50;;;4.10;;
577;SDS011;275;48.492;9.214;2023-04-25T06:38:41;4.95;;;4.25;;
577;SDS011;275;48.492;9.214;2023-04-25T06:41:07;6.10;;;3.90;;
577;SDS011;275;48.492;9.214;2023-04-25T06:43:34;4.88;;;3.80;;
577;SDS011;275;48.492;9.214;2023-04-25T06:46:01;5.28;;;3.97;;
577;SDS011;275;48.492;9.214;2023-04-25T06:48:29;4.95;;;3.58;;
577;SDS011;275;48.492;9.214;2023-04-25T06:50:56;4.63;;;2.63;;
577;SDS011;275;48.492;9.214;2023-04-25T06:53:23;4.97;;;3.08;;
577;SDS011;275;48.492;9.214;2023-04-25T06:55:50;5.60;;;2.90;;
577;SDS011;275;48.492;9.214;2023-04-25T06:58:16;5.18;;;3.20;;
577;SDS011;275;48.492;9.214;2023-04-25T07:00:43;6.40;;;3.60;;
577;SDS011;275;48.492;9.214;2023-04-25T07:03:10;6.43;;;3.60;;
577;SDS011;275;48.492;9.214;2023-04-25T07:05:38;4.53;;;4.00;;
577;SDS011;275;48.492;9.214;2023-04-25T07:08:05;5.72;;;4.30;;
577;SDS011;275;48.492;9.214;2023-04-25T07:10:32;5.47;;;3.95;;
577;SDS011;275;48.492;9.214;2023-04-25T07:12:59;4.50;;;3.15;;
577;SDS011;275;48.492;9.214;2023-04-25T07:15:26;3.70;;;3.08;;
577;SDS011;275;48.492;9.214;2023-04-25T07:17:53;6.97;;;4.07;;
577;SDS011;275;48.492;9.214;2023-04-25T07:20:20;6.40;;;4.07;;
577;SDS011;275;48.492;9.214;2023-04-25T07:22:48;4.97;;;3.40;;
577;SDS011;275;48.492;9.214;2023-04-25T07:25:15;4.00;;;3.38;;
577;SDS011;275;48.492;9.214;2023-04-25T07:27:42;5.63;;;3.45;;
577;SDS011;275;48.492;9.214;2023-04-25T07:30:09;5.18;;;4.00;;
577;SDS011;275;48.492;9.214;2023-04-25T07:32:37;4.40;;;2.83;;
577;SDS011;275;48.492;9.214;2023-04-25T07:35:04;5.07;;;3.70;;
577;SDS011;275;48.492;9.214;2023-04-25T07:37:33;5.20;;;4.05;;
577;SDS011;275;48.492;9.214;2023-04-25T07:40:01;5.45;;;4.00;;
577;SDS011;275;48.492;9.214;2023-04-25T07:42:29;5.97;;;3.40;;
577;SDS011;275;48.492;9.214;2023-04-25T07:44:56;3.83;;;2.85;;
577;SDS011;275;48.492;9.214;2023-04-25T07:47:23;4.30;;;3.20;;
577;SDS011;275;48.492;9.214;2023-04-25T07:49:50;4.57;;;3.28;;
577;SDS011;275;48.492;9.214;2023-04-25T07:52:17;4.25;;;2.90;;
577;SDS011;275;48.492;9.214;2023-04-25T07:54:44;4.65;;;3.50;;
577;SDS011;275;48.492;9.214;2023-04-25T07:57:13;5.18;;;3.38;;
577;SDS011;275;48.492;9.214;2023-04-25T07:59:42;5.90;;;4.28;;
577;SDS011;275;48.492;9.214;2023-04-25T08:02:08;5.28;;;4.22;;
577;SDS011;275;48.492;9.214;2023-04-25T08:04:35;5.95;;;4.40;;
577;SDS011;275;48.492;9.214;2023-04-25T08:07:02;5.65;;;3.85;;
577;SDS011;275;48.492;9.214;2023-04-25T08:09:29;5.32;;;4.20;;
577;SDS011;275;48.492;9.214;2023-04-25T08:11:59;7.70;;;4.95;;
577;SDS011;275;48.492;9.214;2023-04-25T08:14:28;4.90;;;3.90;;
577;SDS011;275;48.492;9.214;2023-04-25T08:17:00;7.28;;;4.50;;
577;SDS011;275;48.492;9.214;2023-04-25T08:19:28;5.78;;;4.35;;
577;SDS011;275;48.492;9.214;2023-04-25T08:21:55;8.10;;;5.10;;
577;SDS011;275;48.492;9.214;2023-04-25T08:24:22;5.70;;;5.10;;
577;SDS011;275;48.492;9.214;2023-04-25T08:26:48;5.72;;;5.05;;
577;SDS011;275;48.492;9.214;2023-04-25T08:29:15;6.75;;;5.22;;
577;SDS011;275;48.492;9.214;2023-04-25T08:31:43;6.57;;;5.18;;
577;SDS011;275;48.492;9.214;2023-04-25T08:34:10;5.80;;;5.00;;
577;SDS011;275;48.492;9.214;2023-04-25T08:36:38;7.57;;;4.72;;
577;SDS011;275;48.492;9.214;2023-04-25T08:39:05;4.40;;;4.00;;
577;SDS011;275;48.492;9.214;2023-04-25T08:41:32;4.35;;;3.70;;
577;SDS011;275;48.492;9.214;2023-04-25T08:43:59;5.40;;;4.45;;
577;SDS011;275;48.492;9.214;2023-04-25T08:46:29;5.47;;;4.30;;
577;SDS011;275;48.492;9.214;2023-04-25T08:49:00;4.43;;;3.95;;
577;SDS011;275;48.492;9.214;2023-04-25T08:51:28;5.75;;;4.90;;
577;SDS011;275;48.492;9.214;2023-04-25T08:54:00;5.90;;;4.85;;
577;SDS011;275;48.492;9.214;2023-04-25T08:56:34;7.00;;;6.00;;
577;SDS011;275;48.492;9.214;2023-04-25T08:59:01;6.55;;;5.82;;
577;SDS011;275;48.492;9.214;2023-04-25T09:01:28;6.13;;;5.50;;
577;SDS011;275;48.492;9.214;2023-04-25T09:03:56;6.05;;;5.55;;
577;SDS011;275;48.492;9.214;2023-04-25T09:06:25;6.65;;;6.05;;
577;SDS011;275;48.492;9.214;2023-04-25T09:08:52;6.50;;;5.90;;
577;SDS011;275;48.492;9.214;2023-04-25T09:11:19;6.80;;;6.20;;
577;SDS011;275;48.492;9.214;2023-04-25T09:13:46;7.13;;;6.53;;
577;SDS011;275;48.492;9.214;2023-04-25T09:16:13;7.45;;;6.75;;
577;SDS011;275;48.492;9.214;2023-04-25T09:18:42;7.80;;;7.10;;
577;SDS011;275;48.492;9.214;2023-04-25T09:21:10;5.25;;;4.75;;
577;SDS011;275;48.492;9.214;2023-04-25T09:23:39;7.07;;;6.47;;
577;SDS011;275;48.492;9.214;2023-04-25T09:26:07;5.00;;;4.50;;
577;SDS011;275;48.492;9.214;2023-04-25T09:28:34;5.45;;;4.95;;
577;SDS011;275;48.492;9.214;2023-04-25T09:31:02;6.40;;;5.80;;
577;SDS011;275;48.492;9.214;2023-04-25T09:33:30;7.05;;;6.45;;
577;SDS011;275;48.492;9.214;2023-04-25T09:36:01;7.43;;;6.60;;
577;SDS011;275;48.492;9.214;2023-04-25T09:38:31;7.68;;;6.53;;
577;SDS011;275;48.492;9.214;2023-04-25T09:40:59;4.55;;;3.40;;
577;SDS011;275;48.492;9.214;2023-04-25T09:43:26;3.05;;;2.50;;
577;SDS011;275;48.492;9.214;2023-04-25T09:45:54;3.00;;;2.03;;
577;SDS011;275;48.492;9.214;2023-04-25T09:48:24;4.00;;;1.70;;
577;SDS011;275;48.492;9.214;2023-04-25T09:51:05;3.10;;;1.92;;
577;SDS011;275;48.492;9.214;2023-04-25T09:53:34;2.50;;;1.52;;
577;SDS011;275;48.492;9.214;2023-04-25T09:56:03;4.40;;;2.45;;
577;SDS011;275;48.492;9.214;2023-04-25T09:58:31;2.75;;;2.08;;
577;SDS011;275;48.492;9.214;2023-04-25T10:00:59;2.08;;;1.33;;
577;SDS011;275;48.492;9.214;2023-04-25T10:03:27;3.17;;;2.20;;
577;SDS011;275;48.492;9.214;2023-04-25T10:05:56;3.30;;;2.53;;
577;SDS011;275;48.492;9.214;2023-04-25T10:08:25;2.65;;;2.13;;
577;SDS011;275;48.492;9.214;2023-04-25T10:11:00;2.70;;;1.60;;
577;SDS011;275;48.492;9.214;2023-04-25T10:13:28;3.65;;;2.10;;
577;SDS011;275;48.492;9.214;2023-04-25T10:15:56;2.60;;;1.73;;
577;SDS011;275;48.492;9.214;2023-04-25T10:18:24;2.50;;;1.40;;
577;SDS011;275;48.492;9.214;2023-04-25T10:20:53;3.30;;;2.50;;
577;SDS011;275;48.492;9.214;2023-04-25T10:23:20;2.83;;;2.38;;
577;SDS011;275;48.492;9.214;2023-04-25T10:25:48;4.97;;;4.47;;
577;SDS011;275;48.492;9.214;2023-04-25T10:28:17;5.90;;;5.40;;
577;SDS011;275;48.492;9.214;2023-04-25T10:30:56;6.18;;;5.68;;
577;SDS011;275;48.492;9.214;2023-04-25T10:33:29;6.30;;;5.70;;
577;SDS011;275;48.492;9.214;2023-04-25T10:35:59;5.80;;;5.30;;
577;SDS011;275;48.492;9.214;2023-04-25T10:38:35;4.80;;;3.65;;
577;SDS011;275;48.492;9.214;2023-04-25T10:41:03;3.60;;;3.25;;
577;SDS011;275;48.492;9.214;2023-04-25T10:43:36;5.20;;;3.80;;
577;SDS011;275;48.492;9.214;2023-04-25T10:46:12;5.15;;;3.65;;
577;SDS011;275;48.492;9.214;2023-04-25T10:48:49;3.17;;;2.40;;
577;SDS011;275;48.492;9.214;2023-04-25T10:51:19;2.70;;;2.10;;
577;SDS011;275;48.492;9.214;2023-04-25T10:53:48;2.90;;;2.30;;
577;SDS011;275;48.492;9.214;2023-04-25T10:56:25;2.95;;;1.95;;
577;SDS011;275;48.492;9.214;2023-04-25T10:59:03;2.42;;;1.80;;
577;SDS011;275;48.492;9.214;2023-04-25T11:01:35;2.70;;;1.98;;
577;SDS011;275;48.492;9.214;2023-04-25T11:04:04;3.92;;;1.90;;
577;SDS011;275;48.492;9.214;2023-04-25T11:06:34;2.50;;;1.90;;
577;SDS011;275;48.492;9.214;2023-04-25T11:09:12;3.90;;;2.47;;
577;SDS011;275;48.492;9.214;2023-04-25T11:11:39;2.80;;;1.55;;
577;SDS011;275;48.492;9.214;2023-04-25T11:14:07;4.05;;;1.52;;
577;SDS011;275;48.492;9.214;2023-04-25T11:16:34;2.30;;;1.30;;
577;SDS011;275;48.492;9.214;2023-04-25T11:19:02;2.35;;;1.40;;
577;SDS011;275;48.492;9.214;2023-04-25T11:21:29;2.63;;;1.48;;
577;SDS011;275;48.492;9.214;2023-04-25T11:23:57;2.30;;;1.42;;
577;SDS011;275;48.492;9.214;2023-04-25T11:26:25;2.28;;;1.50;;
577;SDS011;275;48.492;9.214;2023-04-25T11:28:56;2.00;;;1.27;;
577;SDS011;275;48.492;9.214;2023-04-25T11:31:25;2.20;;;1.20;;
577;SDS011;275;48.492;9.214;2023-04-25T11:33:53;2.10;;;1.20;;
577;SDS011;275;48.492;9.214;2023-04-25T11:36:22;2.25;;;1.17;;
577;SDS011;275;48.492;9.214;2023-04-25T11:38:49;2.78;;;1.00;;
577;SDS011;275;48.492;9.214;2023-04-25T11:41:16;2.42;;;1.10;;
577;SDS011;275;48.492;9.214;2023-04-25T11:43:44;1.98;;;0.90;;
577;SDS011;275;48.492;9.214;2023-04-25T11:46:10;2.05;;;0.90;;
577;SDS011;275;48.492;9.214;2023-04-25T11:48:39;3.72;;;0.95;;
577;SDS011;275;48.492;9.214;2023-04-25T11:51:06;1.90;;;0.93;;
577;SDS011;275;48.492;9.214;2023-04-25T11:53:33;2.20;;;0.90;;
577;SDS011;275;48.492;9.214;2023-04-25T11:56:01;1.80;;;0.80;;
577;SDS011;275;48.492;9.214;2023-04-25T12:01:26;1.83;;;0.80;;
577;SDS011;275;48.492;9.214;2023-04-25T12:03:56;2.80;;;1.20;;
577;SDS011;275;48.492;9.214;2023-04-25T12:06:25;1.80;;;0.90;;
577;SDS011;275;48.492;9.214;2023-04-25T12:09:03;2.65;;;1.40;;
577;SDS011;275;48.492;9.214;2023-04-25T12:11:31;2.20;;;1.23;;
577;SDS011;275;48.492;9.214;2023-04-25T12:14:01;2.08;;;0.90;;
577;SDS011;275;48.492;9.214;2023-04-25T12:16:29;2.05;;;1.05;;
577;SDS011;275;48.492;9.214;2023-04-25T12:19:07;2.17;;;1.00;;
577;SDS011;275;48.492;9.214;2023-04-25T12:21:33;2.17;;;1.13;;
577;SDS011;275;48.492;9.214;2023-04-25T12:24:10;2.40;;;1.15;;
577;SDS011;275;48.492;9.214;2023-04-25T12:26:46;2.97;;;1.23;;
577;SDS011;275;48.492;9.214;2023-04-25T12:29:17;3.35;;;1.77;;
577;SDS011;275;48.492;9.214;2023-04-25T12:31:46;2.30;;;1.60;;
577;SDS011;275;48.492;9.214;2023-04-25T12:34:14;2.55;;;1.55;;
577;SDS011;275;48.492;9.214;2023-04-25T12:36:41;2.80;;;1.88;;
577;SDS011;275;48.492;9.214;2023-04-25T12:39:08;2.90;;;1.83;;
577;SDS011;275;48.492;9.214;2023-04-25T12:41:41;2.80;;;1.50;;
577;SDS011;275;48.492;9.214;2023-04-25T12:44:07;2.05;;;1.25;;
577;SDS011;275;48.492;9.214;2023-04-25T12:46:35;2.10;;;0.98;;
577;SDS011;275;48.492;9.214;2023-04-25T12:49:02;2.10;;;1.20;;
577;SDS011;275;48.492;9.214;2023-04-25T12:51:31;2.75;;;1.60;;
577;SDS011;275;48.492;9.214;2023-04-25T12:53:58;2.50;;;1.30;;
577;SDS011;275;48.492;9.214;2023-04-25T12:56:25;2.75;;;1.70;;
577;SDS011;275;48.492;9.214;2023-04-25T12:58:52;2.78;;;1.40;;
577;SDS011;275;48.492;9.214;2023-04-25T13:01:19;2.90;;;1.33;;
577;SDS011;275;48.492;9.214;2023-04-25T13:03:46;2.50;;;1.25;;
577;SDS011;275;48.492;9.214;2023-04-25T13:06:13;3.80;;;1.30;;
577;SDS011;275;48.492;9.214;2023-04-25T13:08:42;3.08;;;1.70;;
577;SDS011;275;48.492;9.214;2023-04-25T13:11:08;2.50;;;1.42;;
577;SDS011;275;48.492;9.214;2023-04-25T13:13:36;2.13;;;1.17;;
577;SDS011;275;48.492;9.214;2023-04-25T13:16:05;3.00;;;1.50;;
577;SDS011;275;48.492;9.214;2023-04-25T13:18:32;2.50;;;1.55;;
577;SDS011;275;48.492;9.214;2023-04-25T13:20:59;4.20;;;2.60;;
577;SDS011;275;48.492;9.214;2023-04-25T13:23:27;3.17;;;2.30;;
577;SDS011;275;48.492;9.214;2023-04-25T13:25:56;2.60;;;1.70;;
577;SDS011;275;48.492;9.214;2023-04-25T13:28:24;7.53;;;5.32;;
577;SDS011;275;48.492;9.214;2023-04-25T13:30:50;17.17;;;9.05;;
577;SDS011;275;48.492;9.214;2023-04-25T13:33:17;21.30;;;10.93;;
577;SDS011;275;48.492;9.214;2023-04-25T13:35:45;5.45;;;3.17;;
577;SDS011;275;48.492;9.214;2023-04-25T13:38:18;5.00;;;2.40;;
577;SDS011;275;48.492;9.214;2023-04-25T13:40:46;2.90;;;1.75;;
577;SDS011;275;48.492;9.214;2023-04-25T13:43:14;3.30;;;1.70;;
577;SDS011;275;48.492;9.214;2023-04-25T13:45:41;3.50;;;2.00;;
577;SDS011;275;48.492;9.214;2023-04-25T13:48:08;3.03;;;1.75;;
577;SDS011;275;48.492;9.214;2023-04-25T13:50:35;2.83;;;1.60;;
577;SDS011;275;48.492;9.214;2023-04-25T13:53:01;11.00;;;8.27;;
577;SDS011;275;48.492;9.214;2023-04-25T13:55:28;3.83;;;2.55;;
577;SDS011;275;48.492;9.214;2023-04-25T13:57:55;3.58;;;2.63;;
577;SDS011;275;48.492;9.214;2023-04-25T14:00:23;3.83;;;2.95;;
577;SDS011;275;48.492;9.214;2023-04-25T14:02:50;3.20;;;2.60;;
577;SDS011;275;48.492;9.214;2023-04-25T14:05:18;2.88;;;1.90;;
577;SDS011;275;48.492;9.214;2023-04-25T14:07:45;3.00;;;2.05;;
577;SDS011;275;48.492;9.214;2023-04-25T14:10:12;3.70;;;3.00;;
577;SDS011;275;48.492;9.214;2023-04-25T14:12:38;3.10;;;2.60;;
577;SDS011;275;48.492;9.214;2023-04-25T14:15:06;3.43;;;2.40;;
577;SDS011;275;48.492;9.214;2023-04-25T14:17:34;3.80;;;2.65;;
577;SDS011;275;48.492;9.214;2023-04-25T14:20:01;5.00;;;2.45;;
577;SDS011;275;48.492;9.214;2023-04-25T14:22:30;3.43;;;2.47;;
577;SDS011;275;48.492;9.214;2023-04-25T14:24:57;3.80;;;2.43;;
577;SDS011;275;48.492;9.214;2023-04-25T14:27:24;5.90;;;3.53;;
577;SDS011;275;48.492;9.214;2023-04-25T14:29:51;3.45;;;2.75;;
577;SDS011;275;48.492;9.214;2023-04-25T14:32:18;3.43;;;2.40;;
577;SDS011;275;48.492;9.214;2023-04-25T14:34:46;4.50;;;3.07;;
577;SDS011;275;48.492;9.214;2023-04-25T14:37:13;3.73;;;2.60;;
577;SDS011;275;48.492;9.214;2023-04-25T14:39:41;3.80;;;2.90;;
577;SDS011;275;48.492;9.214;2023-04-25T14:42:07;3.90;;;3.20;;
577;SDS011;275;48.492;9.214;2023-04-25T14:44:36;3.70;;;3.23;;
577;SDS011;275;48.492;9.214;2023-04-25T14:47:02;4.10;;;3.60;;
577;SDS011;275;48.492;9.214;2023-04-25T14:49:31;6.17;;;3.73;;
577;SDS011;275;48.492;9.214;2023-04-25T14:51:59;4.70;;;4.17;;
577;SDS011;275;48.492;9.214;2023-04-25T14:54:26;5.13;;;4.50;;
577;SDS011;275;48.492;9.214;2023-04-25T14:56:53;4.40;;;3.97;;
577;SDS011;275;48.492;9.214;2023-04-25T14:59:20;4.70;;;4.20;;
577;SDS011;275;48.492;9.214;2023-04-25T15:01:47;6.43;;;5.73;;
577;SDS011;275;48.492;9.214;2023-04-25T15:04:14;6.40;;;5.53;;
577;SDS011;275;48.492;9.214;2023-04-25T15:06:42;5.87;;;4.70;;
577;SDS011;275;48.492;9.214;2023-04-25T15:09:10;5.50;;;4.77;;
577;SDS011;275;48.492;9.214;2023-04-25T15:11:37;5.73;;;5.23;;
577;SDS011;275;48.492;9.214;2023-04-25T15:14:04;5.60;;;5.10;;
577;SDS011;275;48.492;9.214;2023-04-25T15:16:31;5.77;;;5.03;;
577;SDS011;275;48.492;9.214;2023-04-25T15:18:58;5.80;;;5.30;;
577;SDS011;275;48.492;9.214;2023-04-25T15:21:29;6.07;;;5.05;;
577;SDS011;275;48.492;9.214;2023-04-25T15:23:56;5.10;;;4.60;;
577;SDS011;275;48.492;9.214;2023-04-25T15:26:24;5.22;;;4.72;;
577;SDS011;275;48.492;9.214;2023-04-25T15:28:51;5.53;;;5.00;;
577;SDS011;275;48.492;9.214;2023-04-25T15:31:18;5.80;;;5.30;;
577;SDS011;275;48.492;9.214;2023-04-25T15:33:45;6.60;;;6.00;;
577;SDS011;275;48.492;9.214;2023-04-25T15:36:12;7.38;;;6.68;;
577;SDS011;275;48.492;9.214;2023-04-25T15:38:41;6.15;;;5.65;;
577;SDS011;275;48.492;9.214;2023-04-25T15:41:08;7.67;;;5.70;;
577;SDS011;275;48.492;9.214;2023-04-25T15:43:36;7.43;;;6.10;;
577;SDS011;275;48.492;9.214;2023-04-25T15:46:04;5.70;;;5.20;;
577;SDS011;275;48.492;9.214;2023-04-25T15:48:31;6.67;;;4.93;;
577;SDS011;275;48.492;9.214;2023-04-25T15:50:58;5.93;;;5.33;;